Time;durP1;ratioP1;P1;durP2;ratioP2;P2;SDS_P1;SDS_P2;PMS_P1;PMS_P2;Temp;Humidity;BMP_temperature;BMP_pressure;BME280_temperature;BME280_humidity;BME280_pressure;Samples;Min_cycle;Max_cycle;Signal;HPM_P1;HPM_P2
2022/08/03 00:01:43;;;;;;;16.90;3.50;;;20.90;99.90;;;;;;5096384;28;20051;-74
2022/08/03 00:04:09;;;;;;;14.25;3.17;;;20.90;99.90;;;;;;5096821;28;20013;-75
2022/08/03 00:06:35;;;;;;;16.98;3.28;;;20.90;99.90;;;;;;5095255;28;20028;-75
2022/08/03 00:09:02;;;;;;;15.55;3.08;;;20.80;99.90;;;;;;5093515;28;20028;-75
2022/08/03 00:11:28;;;;;;;15.55;3.33;;;20.80;99.90;;;;;;5096706;28;20039;-75
2022/08/03 00:13:53;;;;;;;21.50;3.50;;;20.80;99.90;;;;;;5097163;28;20039;-74
2022/08/03 00:16:19;;;;;;;17.65;3.15;;;20.80;99.90;;;;;;5084810;28;20084;-75
2022/08/03 00:18:44;;;;;;;15.35;3.10;;;20.80;99.90;;;;;;5095041;28;20066;-75
2022/08/03 00:21:10;;;;;;;15.32;3.13;;;20.70;99.90;;;;;;5080049;28;20017;-75
2022/08/03 00:23:36;;;;;;;18.17;3.05;;;20.70;99.90;;;;;;5089541;28;20051;-74
2022/08/03 00:26:02;;;;;;;17.75;3.47;;;20.70;99.90;;;;;;5096894;28;20031;-74
2022/08/03 00:28:28;;;;;;;13.98;2.70;;;20.70;99.90;;;;;;5095111;28;20054;-74
2022/08/03 00:30:54;;;;;;;17.27;3.20;;;20.70;99.90;;;;;;5090950;28;20056;-74
2022/08/03 00:33:21;;;;;;;13.05;3.00;;;20.70;99.90;;;;;;5089031;28;20023;-75
2022/08/03 00:35:47;;;;;;;15.02;3.20;;;20.60;99.90;;;;;;5095721;28;20028;-74
2022/08/03 00:38:12;;;;;;;16.23;2.90;;;20.60;99.90;;;;;;5096665;28;20025;-74
2022/08/03 00:40:38;;;;;;;21.48;3.28;;;20.70;99.90;;;;;;5095276;28;20013;-73
2022/08/03 00:43:05;;;;;;;11.45;2.67;;;20.60;99.90;;;;;;5093194;28;20024;-73
2022/08/03 00:45:40;;;;;;;14.95;3.25;;;20.60;99.90;;;;;;5092047;28;20054;-74
2022/08/03 00:48:08;;;;;;;22.73;3.47;;;20.60;99.90;;;;;;5093731;28;20043;-75
2022/08/03 00:50:37;;;;;;;15.77;3.05;;;20.60;99.90;;;;;;5092599;28;20032;-73
2022/08/03 00:53:05;;;;;;;15.77;2.88;;;20.60;99.90;;;;;;5092848;28;20009;-74
2022/08/03 00:55:31;;;;;;;15.95;3.50;;;20.50;99.90;;;;;;5093959;28;20020;-74
2022/08/03 00:57:58;;;;;;;16.73;3.20;;;20.50;99.90;;;;;;5092446;28;20037;-73
2022/08/03 01:00:27;;;;;;;14.40;3.50;;;20.50;99.90;;;;;;5080617;28;20056;-76
2022/08/03 01:02:53;;;;;;;17.70;3.65;;;20.50;99.90;;;;;;5087522;28;20025;-73
2022/08/03 01:05:20;;;;;;;12.73;3.05;;;20.40;99.90;;;;;;5094270;28;20016;-75
2022/08/03 01:08:12;;;;;;;16.77;3.78;;;20.40;99.90;;;;;;5076675;28;20032;-73
2022/08/03 01:10:55;;;;;;;15.23;3.10;;;20.40;99.90;;;;;;5065900;28;20051;-73
2022/08/03 01:13:40;;;;;;;16.60;3.50;;;20.40;99.90;;;;;;5093774;28;20028;-74
2022/08/03 01:16:06;;;;;;;20.20;3.75;;;20.40;99.90;;;;;;5093820;28;20080;-75
2022/08/03 01:18:43;;;;;;;12.00;3.35;;;20.40;99.90;;;;;;5093590;28;20024;-73
2022/08/03 01:21:19;;;;;;;15.80;3.10;;;20.40;99.90;;;;;;5093102;28;20017;-73
2022/08/03 01:23:57;;;;;;;17.45;3.15;;;20.40;99.90;;;;;;5093497;28;20032;-75
2022/08/03 01:26:32;;;;;;;12.77;2.58;;;20.40;99.90;;;;;;5093761;28;20029;-74
2022/08/03 01:29:40;;;;;;;18.27;3.20;;;20.40;99.90;;;;;;5093980;28;20074;-75
2022/08/03 01:32:12;;;;;;;17.83;3.30;;;20.30;99.90;;;;;;5092085;28;20017;-75
2022/08/03 01:34:46;;;;;;;12.45;2.83;;;20.30;99.90;;;;;;5095506;28;20008;-75
2022/08/03 01:37:22;;;;;;;12.27;2.90;;;20.20;99.90;;;;;;5095006;28;20013;-74
2022/08/03 01:39:49;;;;;;;10.63;2.50;;;20.20;99.90;;;;;;5094769;28;20144;-73
2022/08/03 01:42:16;;;;;;;14.40;2.85;;;20.20;99.90;;;;;;5094175;28;20028;-75
2022/08/03 01:44:44;;;;;;;15.45;3.22;;;20.20;99.90;;;;;;5091012;28;20008;-76
2022/08/03 01:47:11;;;;;;;17.48;3.78;;;20.20;99.90;;;;;;5094960;28;20047;-74
2022/08/03 01:49:41;;;;;;;16.00;3.45;;;20.20;99.90;;;;;;5094721;28;20041;-76
2022/08/03 01:52:08;;;;;;;11.90;2.80;;;20.20;99.90;;;;;;5086911;28;20052;-74
2022/08/03 01:54:36;;;;;;;17.98;3.15;;;20.20;99.90;;;;;;5094842;28;20030;-75
2022/08/03 01:57:02;;;;;;;17.73;3.42;;;20.20;99.90;;;;;;5094603;28;20017;-75
2022/08/03 01:59:31;;;;;;;16.33;3.08;;;20.20;99.90;;;;;;5094543;28;20030;-75
2022/08/03 02:01:58;;;;;;;18.70;3.35;;;20.20;99.90;;;;;;5093568;28;20071;-75
2022/08/03 02:04:24;;;;;;;12.50;3.17;;;20.20;99.90;;;;;;5082836;28;20032;-73
2022/08/03 02:06:52;;;;;;;14.23;3.47;;;20.20;99.90;;;;;;5088697;28;20059;-73
2022/08/03 02:09:20;;;;;;;15.10;3.42;;;20.20;99.90;;;;;;5084806;28;20029;-75
2022/08/03 02:11:46;;;;;;;16.50;3.13;;;20.10;99.90;;;;;;5076131;28;20032;-75
2022/08/03 02:14:13;;;;;;;19.13;3.85;;;20.10;99.90;;;;;;5094162;28;20305;-74
2022/08/03 02:16:39;;;;;;;18.88;3.30;;;20.10;99.90;;;;;;5094404;28;20081;-75
2022/08/03 02:19:07;;;;;;;16.17;3.53;;;20.10;99.90;;;;;;5095226;28;20028;-75
2022/08/03 02:21:36;;;;;;;22.63;3.92;;;20.10;99.90;;;;;;5094532;28;20080;-75
2022/08/03 02:24:03;;;;;;;11.65;3.22;;;20.00;99.90;;;;;;5094814;28;20092;-74
2022/08/03 02:26:30;;;;;;;17.00;3.55;;;20.00;99.90;;;;;;5094153;28;20019;-76
2022/08/03 02:29:02;;;;;;;11.75;3.08;;;20.00;99.90;;;;;;5091111;28;20044;-74
2022/08/03 02:31:31;;;;;;;15.27;3.30;;;20.00;99.90;;;;;;5094502;28;20012;-75
2022/08/03 02:34:02;;;;;;;22.65;3.25;;;20.00;99.90;;;;;;5094709;28;20028;-75
2022/08/03 02:36:30;;;;;;;21.20;3.33;;;20.00;99.90;;;;;;5094625;28;20039;-75
2022/08/03 02:38:58;;;;;;;22.10;3.95;;;20.00;99.90;;;;;;5094710;28;20047;-75
2022/08/03 02:41:31;;;;;;;17.00;2.92;;;20.00;99.90;;;;;;5093882;28;20028;-74
2022/08/03 02:44:00;;;;;;;14.25;3.00;;;20.00;99.90;;;;;;5092120;28;20108;-75
2022/08/03 02:46:31;;;;;;;13.60;3.13;;;19.90;99.90;;;;;;5076110;28;20028;-74
2022/08/03 02:49:00;;;;;;;14.93;3.45;;;19.90;99.90;;;;;;5092851;28;20044;-74
2022/08/03 02:51:28;;;;;;;18.15;3.88;;;19.90;99.90;;;;;;5092947;28;20032;-74
2022/08/03 02:53:56;;;;;;;18.98;3.28;;;19.90;99.90;;;;;;5096653;28;20056;-73
2022/08/03 02:56:24;;;;;;;11.90;3.30;;;19.90;99.90;;;;;;5097477;28;20039;-75
2022/08/03 02:58:51;;;;;;;14.07;3.35;;;19.90;99.90;;;;;;5097345;28;20031;-74
2022/08/03 03:01:21;;;;;;;18.98;3.47;;;19.90;99.90;;;;;;5096468;28;20027;-75
2022/08/03 03:03:48;;;;;;;16.25;4.00;;;19.90;99.90;;;;;;5097205;28;20029;-73
2022/08/03 03:06:16;;;;;;;21.38;3.97;;;19.90;99.90;;;;;;5097311;28;20067;-75
2022/08/03 03:08:42;;;;;;;13.13;3.50;;;19.90;99.90;;;;;;5097761;28;20029;-75
2022/08/03 03:11:10;;;;;;;14.93;3.67;;;19.90;99.90;;;;;;5097235;28;20032;-74
2022/08/03 03:13:36;;;;;;;17.50;3.53;;;19.90;99.90;;;;;;5098223;28;20029;-76
2022/08/03 03:16:04;;;;;;;17.95;3.55;;;19.80;99.90;;;;;;5098054;28;20009;-75
2022/08/03 03:18:32;;;;;;;14.43;3.50;;;19.80;99.90;;;;;;5074835;28;20050;-75
2022/08/03 03:20:59;;;;;;;23.17;4.20;;;19.80;99.90;;;;;;5098089;28;20036;-75
2022/08/03 03:23:26;;;;;;;14.70;4.00;;;19.80;99.90;;;;;;5097227;28;20060;-74
2022/08/03 03:25:54;;;;;;;15.25;3.80;;;19.80;99.90;;;;;;5097069;28;20088;-75
2022/08/03 03:28:22;;;;;;;18.38;3.20;;;19.70;99.90;;;;;;5079974;28;20032;-76
2022/08/03 03:30:48;;;;;;;19.63;3.78;;;19.70;99.90;;;;;;5097903;28;20096;-74
2022/08/03 03:33:14;;;;;;;18.40;4.07;;;19.70;99.90;;;;;;5097787;28;20012;-76
2022/08/03 03:35:42;;;;;;;19.63;4.03;;;19.70;99.90;;;;;;5096967;28;20067;-74
2022/08/03 03:38:07;;;;;;;18.38;4.25;;;19.70;99.90;;;;;;5096741;28;20077;-75
2022/08/03 03:40:37;;;;;;;17.73;4.25;;;19.70;99.90;;;;;;5095518;28;20029;-72
2022/08/03 03:43:07;;;;;;;16.75;3.42;;;19.60;99.90;;;;;;5096381;28;20055;-74
2022/08/03 03:45:33;;;;;;;20.88;3.88;;;19.60;99.90;;;;;;5096101;28;20028;-74
2022/08/03 03:48:00;;;;;;;25.42;4.10;;;19.60;99.90;;;;;;5096627;28;20013;-75
2022/08/03 03:50:27;;;;;;;14.30;3.42;;;19.60;99.90;;;;;;5084247;28;20028;-74
2022/08/03 03:52:52;;;;;;;21.52;4.05;;;19.60;99.90;;;;;;5095759;28;20032;-74
2022/08/03 03:55:18;;;;;;;21.02;3.78;;;19.60;99.90;;;;;;5095406;28;20036;-74
2022/08/03 03:57:44;;;;;;;18.08;3.70;;;19.60;99.90;;;;;;5077341;28;20040;-73
2022/08/03 04:00:15;;;;;;;17.10;3.67;;;19.60;99.90;;;;;;5094044;28;20039;-73
2022/08/03 04:02:40;;;;;;;17.35;3.92;;;19.60;99.90;;;;;;5096727;28;20008;-75
2022/08/03 04:11:19;;;;;;;21.02;3.80;;;19.60;99.90;;;;;;5089767;28;20105;-75
2022/08/03 04:14:06;;;;;;;19.67;4.20;;;19.60;99.90;;;;;;5089463;28;20036;-75
2022/08/03 04:16:36;;;;;;;20.77;3.92;;;19.50;99.90;;;;;;5096721;28;20420;-76
2022/08/03 04:19:10;;;;;;;18.17;4.05;;;19.50;99.90;;;;;;5096038;28;20016;-75
2022/08/03 04:21:41;;;;;;;17.88;3.97;;;19.50;99.90;;;;;;5096196;28;20024;-75
2022/08/03 04:24:09;;;;;;;18.05;4.20;;;19.50;99.90;;;;;;5096567;28;20354;-76
2022/08/03 04:26:38;;;;;;;20.30;4.60;;;19.50;99.90;;;;;;5096096;28;20021;-74
2022/08/03 04:29:05;;;;;;;15.95;4.43;;;19.50;99.90;;;;;;5095779;28;20033;-74
2022/08/03 04:31:32;;;;;;;22.10;4.40;;;19.50;99.90;;;;;;5095980;28;20052;-75
2022/08/03 04:33:58;;;;;;;18.52;3.88;;;19.50;99.90;;;;;;5096436;28;20035;-75
2022/08/03 04:36:26;;;;;;;24.50;4.45;;;19.50;99.90;;;;;;5095781;28;20012;-75
2022/08/03 04:39:02;;;;;;;15.77;4.22;;;19.50;99.90;;;;;;5095177;28;20095;-75
2022/08/03 04:41:29;;;;;;;20.83;4.90;;;19.50;99.90;;;;;;5095557;28;20013;-75
2022/08/03 04:43:57;;;;;;;21.15;4.50;;;19.50;99.90;;;;;;5076401;28;20110;-75
2022/08/03 04:46:27;;;;;;;16.27;4.50;;;19.50;99.90;;;;;;5088525;28;20043;-73
2022/08/03 04:48:53;;;;;;;17.70;3.95;;;19.50;99.90;;;;;;5095391;28;20036;-75
2022/08/03 04:51:19;;;;;;;18.90;4.43;;;19.50;99.90;;;;;;5095352;28;20044;-73
2022/08/03 04:53:45;;;;;;;16.98;4.53;;;19.50;99.90;;;;;;5077103;28;20028;-75
2022/08/03 04:56:11;;;;;;;17.40;4.05;;;19.50;99.90;;;;;;5094207;28;20013;-75
2022/08/03 04:58:36;;;;;;;19.50;4.88;;;19.40;99.90;;;;;;5092197;28;20020;-75
2022/08/03 05:01:02;;;;;;;19.92;4.40;;;19.40;99.90;;;;;;5083933;28;20020;-74
2022/08/03 05:03:28;;;;;;;21.55;4.22;;;19.40;99.90;;;;;;5094620;28;20024;-74
2022/08/03 05:05:54;;;;;;;20.98;4.78;;;19.40;99.90;;;;;;5094176;28;20064;-74
2022/08/03 05:08:20;;;;;;;20.98;4.25;;;19.40;99.90;;;;;;5091748;28;20047;-75
2022/08/03 05:10:46;;;;;;;20.35;4.68;;;19.40;99.90;;;;;;5093735;28;20033;-75
2022/08/03 05:13:13;;;;;;;24.83;4.70;;;19.40;99.90;;;;;;5094097;28;20032;-75
2022/08/03 05:15:39;;;;;;;20.92;4.45;;;19.40;99.90;;;;;;5094020;28;20013;-74
2022/08/03 05:18:05;;;;;;;19.65;4.80;;;19.40;99.90;;;;;;5091964;28;20029;-75
2022/08/03 05:20:31;;;;;;;20.55;4.78;;;19.50;99.90;;;;;;5090621;28;20039;-74
2022/08/03 05:22:58;;;;;;;19.30;4.53;;;19.50;99.90;;;;;;5079629;28;20055;-74
2022/08/03 05:25:23;;;;;;;19.15;4.65;;;19.50;99.90;;;;;;5085325;28;20021;-74
2022/08/03 05:27:49;;;;;;;22.42;4.75;;;19.60;99.90;;;;;;5082596;28;20169;-75
2022/08/03 05:30:15;;;;;;;19.98;4.68;;;19.60;99.90;;;;;;5083247;28;20053;-74
2022/08/03 05:32:41;;;;;;;20.27;4.88;;;19.60;99.90;;;;;;5090549;28;20036;-72
2022/08/03 05:35:07;;;;;;;20.90;4.97;;;19.70;99.90;;;;;;5072420;28;20358;-72
2022/08/03 05:37:32;;;;;;;22.85;4.75;;;19.70;99.90;;;;;;5071807;28;20419;-71
2022/08/03 05:39:58;;;;;;;17.35;4.82;;;19.80;99.90;;;;;;5071227;28;20074;-71
2022/08/03 05:42:23;;;;;;;19.48;5.18;;;19.90;99.90;;;;;;5072121;28;20074;-72
2022/08/03 05:44:49;;;;;;;28.95;5.85;;;19.90;99.90;;;;;;5060168;28;20025;-71
2022/08/03 05:47:15;;;;;;;26.30;5.82;;;20.00;99.90;;;;;;5068797;28;20165;-72
2022/08/03 05:49:40;;;;;;;24.98;6.90;;;20.00;99.90;;;;;;5055264;28;20028;-72
2022/08/03 05:52:06;;;;;;;24.35;6.57;;;20.00;99.90;;;;;;5055468;28;20077;-72
2022/08/03 05:54:32;;;;;;;19.20;6.93;;;20.10;99.90;;;;;;5072959;28;20023;-71
2022/08/03 05:56:57;;;;;;;22.45;6.63;;;20.10;99.90;;;;;;5073219;28;20024;-71
2022/08/03 05:59:24;;;;;;;23.67;8.55;;;20.20;99.90;;;;;;5074367;28;20115;-71
2022/08/03 06:01:50;;;;;;;23.63;7.97;;;20.20;99.90;;;;;;5067314;28;20423;-72
2022/08/03 06:04:15;;;;;;;25.15;8.93;;;20.20;99.90;;;;;;5065980;28;20028;-72
2022/08/03 06:06:42;;;;;;;29.67;9.60;;;20.20;99.90;;;;;;5051778;28;20025;-71
2022/08/03 06:09:09;;;;;;;30.58;9.40;;;20.20;99.90;;;;;;5045387;28;20108;-72
2022/08/03 06:11:35;;;;;;;29.48;10.80;;;20.30;99.90;;;;;;5068694;28;20139;-72
2022/08/03 06:14:01;;;;;;;27.92;10.85;;;20.30;99.90;;;;;;5061687;28;20052;-71
2022/08/03 06:16:26;;;;;;;25.92;11.32;;;20.30;99.90;;;;;;5068411;28;20056;-71
2022/08/03 06:18:52;;;;;;;29.02;10.20;;;20.20;99.90;;;;;;5068606;28;20028;-71
2022/08/03 06:21:17;;;;;;;30.30;10.57;;;20.20;99.90;;;;;;5069044;28;20051;-71
2022/08/03 06:23:44;;;;;;;26.42;10.10;;;20.30;99.90;;;;;;5067798;28;20045;-71
2022/08/03 06:26:09;;;;;;;24.15;9.98;;;20.30;99.90;;;;;;5064838;28;20090;-72
2022/08/03 06:28:35;;;;;;;22.60;9.57;;;20.30;99.90;;;;;;5072112;28;20036;-72
2022/08/03 06:31:01;;;;;;;22.13;9.57;;;20.40;99.90;;;;;;5069600;28;20527;-71
2022/08/03 06:33:27;;;;;;;25.40;9.18;;;20.50;99.90;;;;;;5075555;28;20066;-72
2022/08/03 06:35:53;;;;;;;27.60;10.13;;;20.50;99.90;;;;;;5075860;28;20031;-72
2022/08/03 06:38:18;;;;;;;26.35;10.02;;;20.50;99.90;;;;;;5075534;28;20533;-72
2022/08/03 06:40:44;;;;;;;27.73;9.90;;;20.50;99.90;;;;;;5075933;28;20016;-72
2022/08/03 06:43:09;;;;;;;27.70;9.55;;;20.60;99.90;;;;;;5072906;28;20342;-71
2022/08/03 06:45:35;;;;;;;20.30;9.27;;;20.50;99.90;;;;;;5073611;28;20021;-73
2022/08/03 06:48:03;;;;;;;28.45;10.15;;;20.50;99.90;;;;;;5074726;28;20031;-71
2022/08/03 06:50:29;;;;;;;27.77;10.50;;;20.60;99.90;;;;;;5070806;28;20032;-72
2022/08/03 06:52:55;;;;;;;21.33;10.02;;;20.60;99.90;;;;;;5070426;28;20029;-71
2022/08/03 06:55:21;;;;;;;24.27;9.93;;;20.70;99.90;;;;;;5064451;28;20372;-72
2022/08/03 06:57:47;;;;;;;27.63;9.45;;;20.80;99.90;;;;;;5055626;28;20237;-73
2022/08/03 07:00:13;;;;;;;26.60;11.68;;;20.80;99.90;;;;;;5073272;28;20044;-72
2022/08/03 07:02:39;;;;;;;21.30;12.85;;;20.90;99.90;;;;;;5061688;28;20017;-72
2022/08/03 07:05:05;;;;;;;35.22;14.88;;;20.90;99.90;;;;;;5058887;28;20025;-72
2022/08/03 07:07:30;;;;;;;31.73;13.70;;;20.90;99.90;;;;;;5064727;28;20091;-73
2022/08/03 07:09:56;;;;;;;37.33;13.85;;;20.90;99.90;;;;;;5074692;28;20028;-72
2022/08/03 07:12:21;;;;;;;26.42;14.80;;;20.90;99.90;;;;;;5071875;28;20030;-72
2022/08/03 07:14:47;;;;;;;28.63;15.98;;;21.00;99.90;;;;;;5076529;28;20020;-72
2022/08/03 07:17:12;;;;;;;28.48;16.60;;;21.00;99.90;;;;;;5077734;28;20024;-72
2022/08/03 07:19:38;;;;;;;31.95;16.17;;;21.10;99.90;;;;;;5074180;28;20027;-71
2022/08/03 07:22:04;;;;;;;30.23;15.73;;;21.10;99.90;;;;;;5076121;28;20067;-72
2022/08/03 07:24:29;;;;;;;32.13;14.55;;;21.20;99.90;;;;;;5061582;28;20431;-71
2022/08/03 07:26:55;;;;;;;30.27;13.40;;;21.30;99.90;;;;;;5073953;28;20119;-72
2022/08/03 07:29:20;;;;;;;32.72;14.48;;;21.40;99.90;;;;;;5056949;28;20024;-72
2022/08/03 07:31:46;;;;;;;30.83;15.75;;;21.40;99.90;;;;;;5057157;28;20037;-71
2022/08/03 07:34:12;;;;;;;30.48;16.02;;;21.40;99.90;;;;;;5062162;28;20025;-71
2022/08/03 07:36:37;;;;;;;26.40;14.98;;;21.40;99.90;;;;;;5074351;28;20113;-71
2022/08/03 07:39:03;;;;;;;34.90;16.13;;;21.50;99.90;;;;;;5075081;28;20071;-72
2022/08/03 07:41:29;;;;;;;27.33;15.25;;;21.50;99.90;;;;;;5075443;28;20021;-72
2022/08/03 07:43:54;;;;;;;33.83;14.38;;;21.60;99.90;;;;;;5075317;28;20028;-71
2022/08/03 07:46:20;;;;;;;24.15;12.57;;;21.70;99.90;;;;;;5074769;28;20020;-72
2022/08/03 07:48:46;;;;;;;28.35;12.48;;;21.80;99.90;;;;;;5071529;28;20033;-73
2022/08/03 07:51:11;;;;;;;26.98;12.50;;;21.90;99.90;;;;;;5074175;28;20461;-72
2022/08/03 07:53:37;;;;;;;26.67;11.63;;;21.90;99.90;;;;;;5074652;28;20095;-71
2022/08/03 07:56:03;;;;;;;27.05;13.00;;;21.90;99.90;;;;;;5074895;28;20055;-72
2022/08/03 07:58:28;;;;;;;23.85;14.05;;;21.90;99.90;;;;;;5075502;28;20028;-72
2022/08/03 08:00:54;;;;;;;27.33;14.65;;;21.90;99.90;;;;;;5074812;28;20028;-72
2022/08/03 08:03:20;;;;;;;26.05;14.73;;;22.00;99.90;;;;;;5075899;28;20027;-72
2022/08/03 08:05:46;;;;;;;29.05;12.40;;;22.10;99.90;;;;;;5075626;28;20090;-73
2022/08/03 08:08:12;;;;;;;27.30;12.20;;;22.10;99.90;;;;;;5075635;28;20025;-72
2022/08/03 08:10:37;;;;;;;31.75;11.98;;;22.20;99.90;;;;;;5076643;28;20099;-73
2022/08/03 08:13:03;;;;;;;24.77;12.35;;;22.30;99.90;;;;;;5076263;28;20129;-71
2022/08/03 08:15:30;;;;;;;23.95;11.68;;;22.40;99.90;;;;;;5075567;28;20036;-73
2022/08/03 08:17:58;;;;;;;26.23;11.88;;;22.60;99.90;;;;;;5079821;28;20073;-73
2022/08/03 08:20:26;;;;;;;30.67;12.30;;;22.70;99.90;;;;;;5076712;28;20306;-73
2022/08/03 08:22:53;;;;;;;27.90;12.27;;;22.80;99.90;;;;;;5039213;28;1087471;-73
2022/08/03 08:25:19;;;;;;;26.50;12.05;;;22.90;99.90;;;;;;5080547;28;20529;-73
2022/08/03 08:27:47;;;;;;;23.73;11.18;;;23.00;99.90;;;;;;5080414;28;20070;-73
2022/08/03 08:30:15;;;;;;;23.83;11.70;;;23.00;99.90;;;;;;5081212;28;20013;-73
2022/08/03 08:32:41;;;;;;;28.80;11.95;;;23.20;99.90;;;;;;5072801;28;20040;-73
2022/08/03 08:35:08;;;;;;;32.00;12.63;;;23.20;99.90;;;;;;5077699;28;20031;-73
2022/08/03 08:37:34;;;;;;;27.70;12.10;;;23.20;99.90;;;;;;5068940;28;20078;-73
2022/08/03 08:40:00;;;;;;;22.85;11.70;;;23.20;99.90;;;;;;5064519;28;20028;-74
2022/08/03 08:42:26;;;;;;;24.35;11.77;;;23.20;99.90;;;;;;5064611;28;20052;-73
2022/08/03 08:44:51;;;;;;;31.77;11.82;;;23.20;99.90;;;;;;5074357;28;20028;-73
2022/08/03 08:47:22;;;;;;;22.73;10.93;;;23.30;99.90;;;;;;5081475;28;20025;-73
2022/08/03 08:49:51;;;;;;;25.60;10.50;;;23.40;99.90;;;;;;5059792;28;20028;-73
2022/08/03 08:52:21;;;;;;;28.40;10.95;;;23.50;99.90;;;;;;5080796;28;20333;-73
2022/08/03 08:54:47;;;;;;;22.55;10.02;;;23.70;99.90;;;;;;5078604;28;20034;-74
2022/08/03 08:57:15;;;;;;;25.45;11.25;;;23.80;99.90;;;;;;5076618;28;20484;-73
2022/08/03 08:59:42;;;;;;;22.98;10.68;;;23.90;99.90;;;;;;5075534;28;20028;-73
2022/08/03 09:02:08;;;;;;;23.75;10.63;;;24.00;99.90;;;;;;5074226;28;20465;-73
2022/08/03 09:04:37;;;;;;;24.58;10.35;;;24.00;99.90;;;;;;5072883;28;20012;-73
2022/08/03 09:07:04;;;;;;;18.27;10.77;;;24.00;99.90;;;;;;5075552;28;20021;-73
2022/08/03 09:09:30;;;;;;;27.90;10.52;;;24.00;99.90;;;;;;5076399;28;20467;-73
2022/08/03 09:11:55;;;;;;;24.08;11.05;;;24.00;99.90;;;;;;5079202;28;20052;-74
2022/08/03 09:14:21;;;;;;;23.38;11.30;;;24.20;99.90;;;;;;5056558;28;20036;-73
2022/08/03 09:17:01;;;;;;;21.90;10.13;;;24.30;99.90;;;;;;5071210;28;20031;-74
2022/08/03 09:19:30;;;;;;;21.95;9.70;;;24.50;99.90;;;;;;5076752;28;20348;-73
2022/08/03 09:22:14;;;;;;;20.80;9.88;;;24.50;99.90;;;;;;5060344;28;20161;-73
2022/08/03 09:25:03;;;;;;;21.52;9.55;;;24.70;99.90;;;;;;5074285;28;20113;-72
2022/08/03 09:27:42;;;;;;;22.67;9.90;;;24.80;99.90;;;;;;5076203;28;20174;-72
2022/08/03 09:30:13;;;;;;;28.80;10.13;;;25.00;99.90;;;;;;5079478;28;20024;-73
2022/08/03 09:32:39;;;;;;;21.45;8.57;;;25.20;99.90;;;;;;5068290;28;20257;-74
2022/08/03 09:35:05;;;;;;;20.70;8.90;;;25.20;99.90;;;;;;5077342;28;20033;-74
2022/08/03 09:37:30;;;;;;;18.25;8.20;;;25.20;99.90;;;;;;5079764;28;20020;-74
2022/08/03 09:39:56;;;;;;;18.20;8.73;;;25.30;99.90;;;;;;5079052;28;20035;-74
2022/08/03 09:42:22;;;;;;;19.85;9.02;;;25.40;99.90;;;;;;5073470;28;20540;-74
2022/08/03 09:44:50;;;;;;;18.88;8.93;;;25.40;99.90;;;;;;5074323;28;20028;-73
2022/08/03 09:47:28;;;;;;;21.23;8.95;;;25.40;99.90;;;;;;5073651;28;20025;-73
2022/08/03 09:50:01;;;;;;;23.20;9.05;;;25.50;99.90;;;;;;5079035;28;20043;-73
2022/08/03 09:52:32;;;;;;;22.67;9.13;;;25.50;99.90;;;;;;5077974;28;20047;-73
2022/08/03 09:55:00;;;;;;;18.73;8.45;;;25.60;99.90;;;;;;5079642;28;20166;-73
2022/08/03 09:57:26;;;;;;;19.02;8.75;;;25.60;99.90;;;;;;5079792;28;20024;-74
2022/08/03 09:59:57;;;;;;;19.40;8.50;;;25.60;99.90;;;;;;5071431;28;20029;-74
2022/08/03 10:02:26;;;;;;;20.30;9.45;;;25.60;99.90;;;;;;5074131;28;20041;-73
2022/08/03 10:04:53;;;;;;;26.10;8.98;;;25.70;99.90;;;;;;5070582;28;20024;-73
2022/08/03 10:07:23;;;;;;;22.05;7.82;;;25.90;99.90;;;;;;5074187;28;20132;-73
2022/08/03 10:10:00;;;;;;;22.48;7.50;;;26.00;99.90;;;;;;5071443;28;20032;-73
2022/08/03 10:12:27;;;;;;;21.17;8.70;;;26.10;99.90;;;;;;5069310;28;20033;-73
2022/08/03 10:14:53;;;;;;;24.95;8.02;;;26.20;99.90;;;;;;5071774;28;20017;-74
2022/08/03 10:17:20;;;;;;;18.60;7.68;;;26.40;99.90;;;;;;5075386;28;20024;-74
2022/08/03 10:19:47;;;;;;;18.38;7.38;;;26.50;99.90;;;;;;5077367;28;20029;-74
2022/08/03 10:22:25;;;;;;;24.73;8.27;;;26.50;99.90;;;;;;5078007;28;20094;-74
2022/08/03 10:25:10;;;;;;;20.92;8.07;;;26.60;99.90;;;;;;5077743;28;20071;-74
2022/08/03 10:27:41;;;;;;;24.27;7.75;;;26.60;99.90;;;;;;5080304;28;20033;-74
2022/08/03 10:30:09;;;;;;;20.90;7.20;;;26.60;99.90;;;;;;5073681;28;20025;-74
2022/08/03 10:32:47;;;;;;;23.85;5.90;;;26.60;99.90;;;;;;5058491;28;20054;-74
2022/08/03 10:35:16;;;;;;;21.40;5.50;;;26.80;99.90;;;;;;5070731;28;20457;-71
2022/08/03 10:38:02;;;;;;;14.93;5.18;;;26.90;99.90;;;;;;5071275;28;20017;-73
2022/08/03 10:40:30;;;;;;;20.40;5.13;;;27.00;99.90;;;;;;5070797;28;20020;-73
2022/08/03 10:43:02;;;;;;;19.55;5.18;;;27.10;99.90;;;;;;5081722;28;20046;-73
2022/08/03 10:45:32;;;;;;;19.50;5.82;;;27.20;99.90;;;;;;5079070;28;20024;-74
2022/08/03 10:47:59;;;;;;;16.40;5.45;;;27.30;99.90;;;;;;5073817;28;20100;-74
2022/08/03 10:50:25;;;;;;;16.67;4.90;;;27.50;99.90;;;;;;5081300;28;20046;-73
2022/08/03 10:53:07;;;;;;;21.85;4.85;;;27.50;99.90;;;;;;5083456;28;20021;-74
2022/08/03 10:58:43;;;;;;;21.50;4.32;;;27.70;99.90;;;;;;5068229;28;20448;-74
2022/08/03 11:01:09;;;;;;;;;;;27.80;99.90;;;;;;5075044;28;20131;-74
2022/08/03 11:03:53;;;;;;;15.45;3.90;;;27.80;99.90;;;;;;5081618;28;20369;-75
2022/08/03 11:06:25;;;;;;;13.30;3.30;;;27.70;99.90;;;;;;5079484;28;20031;-76
2022/08/03 11:09:09;;;;;;;14.25;3.40;;;27.70;99.90;;;;;;5079585;28;20032;-76
2022/08/03 11:11:43;;;;;;;13.00;3.50;;;27.70;99.90;;;;;;5079565;28;20409;-76
2022/08/03 11:14:10;;;;;;;15.18;3.55;;;27.70;99.90;;;;;;5086007;28;20021;-76
2022/08/03 11:16:37;;;;;;;23.67;3.72;;;27.70;99.90;;;;;;5083856;28;20393;-76
2022/08/03 11:19:04;;;;;;;15.43;3.72;;;27.80;99.90;;;;;;5088717;28;20050;-75
2022/08/03 11:21:48;;;;;;;14.65;3.80;;;28.00;99.70;;;;;;5080374;28;20025;-76
2022/08/03 11:24:36;;;;;;;20.33;4.00;;;28.00;98.70;;;;;;5082078;28;20086;-73
2022/08/03 11:27:16;;;;;;;16.10;4.13;;;28.00;98.80;;;;;;5050938;28;20073;-73
2022/08/03 11:30:03;;;;;;;19.25;4.60;;;28.10;98.40;;;;;;5064174;28;20025;-73
2022/08/03 11:32:38;;;;;;;19.98;4.80;;;28.10;98.80;;;;;;5083344;28;20036;-73
2022/08/03 11:35:34;;;;;;;21.10;4.90;;;28.20;99.30;;;;;;5083659;28;20028;-73
2022/08/03 11:38:00;;;;;;;11.43;3.65;;;28.50;98.90;;;;;;5085020;28;20040;-74
2022/08/03 11:40:49;;;;;;;15.07;3.80;;;28.60;98.50;;;;;;5072644;28;20063;-73
2022/08/03 11:43:21;;;;;;;21.15;3.90;;;28.70;97.20;;;;;;5084048;28;20024;-72
2022/08/03 11:46:05;;;;;;;15.60;3.90;;;28.70;97.10;;;;;;5084426;28;20036;-73
2022/08/03 11:48:41;;;;;;;12.70;2.90;;;28.90;97.00;;;;;;5085785;28;20029;-75
2022/08/03 11:51:22;;;;;;;11.75;3.20;;;28.90;95.30;;;;;;5083355;28;20032;-74
2022/08/03 11:53:56;;;;;;;16.38;3.08;;;29.00;95.00;;;;;;5083969;28;20075;-74
2022/08/03 11:56:22;;;;;;;12.13;3.10;;;29.00;94.30;;;;;;5086091;28;20031;-73
2022/08/03 11:58:52;;;;;;;17.10;3.40;;;29.00;93.80;;;;;;5066362;28;20094;-73
2022/08/03 12:01:18;;;;;;;17.63;3.78;;;29.10;93.80;;;;;;5065597;28;20035;-74
2022/08/03 12:03:44;;;;;;;14.82;3.10;;;29.00;93.60;;;;;;5072365;28;20028;-75
2022/08/03 12:06:11;;;;;;;14.27;2.80;;;29.10;93.60;;;;;;5076297;28;20426;-74
2022/08/03 12:08:37;;;;;;;12.90;2.47;;;29.20;93.40;;;;;;5078228;28;20036;-75
2022/08/03 12:11:05;;;;;;;15.80;3.25;;;29.30;92.50;;;;;;5078859;28;20107;-75
2022/08/03 12:13:37;;;;;;;12.65;2.97;;;29.50;92.10;;;;;;5078461;28;20040;-74
2022/08/03 12:16:03;;;;;;;14.20;3.03;;;29.60;91.30;;;;;;5078248;28;20019;-76
2022/08/03 12:18:29;;;;;;;8.13;2.78;;;29.60;90.80;;;;;;5076700;28;20032;-74
2022/08/03 12:21:11;;;;;;;16.58;3.00;;;29.50;90.50;;;;;;5064437;28;20070;-74
2022/08/03 12:23:38;;;;;;;12.32;2.92;;;29.50;90.10;;;;;;5073395;28;20052;-74
2022/08/03 12:26:06;;;;;;;11.60;2.88;;;29.50;90.40;;;;;;5069847;28;20047;-75
2022/08/03 12:28:31;;;;;;;11.27;2.63;;;29.50;90.10;;;;;;5071441;28;20043;-74
2022/08/03 12:31:02;;;;;;;13.15;2.92;;;29.70;90.10;;;;;;5071186;28;20028;-75
2022/08/03 12:33:27;;;;;;;11.98;2.90;;;29.80;89.60;;;;;;5060498;28;20029;-74
2022/08/03 12:36:09;;;;;;;11.85;2.70;;;29.90;87.90;;;;;;5070989;28;20021;-74
2022/08/03 12:38:37;;;;;;;13.57;2.60;;;29.90;84.60;;;;;;5063660;28;20104;-74
2022/08/03 12:41:10;;;;;;;11.68;3.17;;;29.90;85.10;;;;;;5064937;28;20452;-75
2022/08/03 12:43:36;;;;;;;10.10;2.50;;;29.90;83.90;;;;;;5058546;28;20033;-76
2022/08/03 12:46:10;;;;;;;9.43;2.97;;;30.10;85.20;;;;;;5061224;28;20029;-74
2022/08/03 12:48:36;;;;;;;10.60;2.67;;;30.20;82.70;;;;;;5070708;28;20032;-74
2022/08/03 12:51:10;;;;;;;18.70;3.00;;;30.20;82.30;;;;;;5070904;28;20029;-75
2022/08/03 12:53:36;;;;;;;13.30;2.88;;;30.20;81.30;;;;;;5068624;28;20013;-75